Time;durP1;ratioP1;P1;durP2;ratioP2;P2;SDS_P1;SDS_P2;PMS_P1;PMS_P2;Temp;Humidity;BMP_temperature;BMP_pressure;BME280_temperature;BME280_humidity;BME280_pressure;Samples;Min_cycle;Max_cycle;Signal;HPM_P1;HPM_P2
2022/09/04 00:02:00;;;;;;;2.15;1.90;;;16.10;74.70;;;;;;5030533;28;20490;-30
2022/09/04 00:04:41;;;;;;;3.20;2.20;;;16.10;76.00;;;;;;5052029;28;20445;-29
2022/09/04 00:08:10;;;;;;;2.45;2.28;;;16.00;77.00;;;;;;5041436;28;20037;-29
2022/09/04 00:10:41;;;;;;;2.53;2.10;;;15.90;78.10;;;;;;4996143;28;20083;-30
2022/09/04 00:13:21;;;;;;;1.90;1.80;;;15.90;77.50;;;;;;5048043;28;20428;-29
2022/09/04 00:16:04;;;;;;;2.40;2.03;;;15.90;79.80;;;;;;5047664;28;20067;-30
2022/09/04 00:18:38;;;;;;;2.25;2.05;;;15.80;79.50;;;;;;5029485;28;20033;-30
2022/09/04 00:21:04;;;;;;;3.65;2.10;;;15.80;79.40;;;;;;5038117;28;20102;-31
2022/09/04 00:23:45;;;;;;;2.97;2.35;;;15.80;79.50;;;;;;5040831;28;20481;-30
2022/09/04 00:26:36;;;;;;;3.47;2.13;;;15.80;81.70;;;;;;5039655;28;20037;-30
2022/09/04 00:29:35;;;;;;;4.13;2.65;;;15.70;82.10;;;;;;5033744;28;20091;-30
2022/09/04 00:32:22;;;;;;;2.40;2.20;;;15.70;81.50;;;;;;5027583;28;20040;-30
2022/09/04 00:35:20;;;;;;;3.22;2.28;;;15.70;81.70;;;;;;5038222;28;20154;-30
2022/09/04 00:38:10;;;;;;;3.20;2.08;;;15.70;85.40;;;;;;5003021;28;20048;-29
2022/09/04 00:40:41;;;;;;;3.25;2.30;;;15.70;82.90;;;;;;5052373;28;20562;-30
2022/09/04 00:43:33;;;;;;;2.95;1.98;;;15.70;81.70;;;;;;5033287;28;20041;-30
2022/09/04 00:46:31;;;;;;;5.13;2.25;;;15.70;82.00;;;;;;5010724;28;20048;-30
2022/09/04 00:49:27;;;;;;;2.53;2.30;;;15.60;84.60;;;;;;5033643;28;20045;-30
2022/09/04 00:52:03;;;;;;;3.15;2.35;;;15.60;83.60;;;;;;5023779;28;20123;-30
2022/09/04 00:54:51;;;;;;;3.33;1.98;;;15.60;83.70;;;;;;5047529;28;20433;-30
2022/09/04 00:57:59;;;;;;;5.05;2.40;;;15.50;86.30;;;;;;5035340;28;20073;-30
2022/09/04 01:00:26;;;;;;;2.75;2.10;;;15.50;85.30;;;;;;5041559;28;20490;-30
2022/09/04 01:03:10;;;;;;;5.15;2.30;;;15.50;85.00;;;;;;5033345;28;20128;-30
2022/09/04 01:05:56;;;;;;;4.68;2.15;;;15.40;86.50;;;;;;5036701;28;20428;-30
2022/09/04 01:08:41;;;;;;;3.30;2.15;;;15.40;86.90;;;;;;5048643;28;20024;-30
2022/09/04 01:11:25;;;;;;;4.15;2.50;;;15.40;88.40;;;;;;5016598;28;20475;-30
2022/09/04 01:13:59;;;;;;;3.63;2.38;;;15.30;89.40;;;;;;5021635;28;20085;-30
2022/09/04 01:16:30;;;;;;;2.70;2.50;;;15.30;88.30;;;;;;5033603;28;20041;-30
2022/09/04 01:18:58;;;;;;;2.60;2.05;;;15.30;89.10;;;;;;5041769;28;20390;-30
2022/09/04 01:22:20;;;;;;;4.53;2.47;;;15.30;90.40;;;;;;5056677;28;20076;-30
2022/09/04 01:25:07;;;;;;;4.88;2.47;;;15.30;91.50;;;;;;4970702;28;20488;-31
2022/09/04 01:27:50;;;;;;;2.85;2.30;;;15.20;90.70;;;;;;4992553;28;20049;-30
2022/09/04 01:30:18;;;;;;;2.87;2.20;;;15.20;91.60;;;;;;5020413;28;20526;-30
2022/09/04 01:33:18;;;;;;;4.15;2.45;;;15.10;90.80;;;;;;5037314;28;20279;-30
2022/09/04 01:36:02;;;;;;;3.30;2.47;;;15.10;91.10;;;;;;5042551;28;20091;-30
2022/09/04 01:38:54;;;;;;;3.95;2.17;;;15.10;91.50;;;;;;5048004;28;20067;-29
2022/09/04 01:41:33;;;;;;;4.03;2.53;;;15.00;92.40;;;;;;5036519;28;20049;-31
2022/09/04 01:43:59;;;;;;;3.85;2.63;;;15.00;92.80;;;;;;5023033;28;20044;-32
2022/09/04 01:46:52;;;;;;;2.92;2.20;;;15.00;92.50;;;;;;5054273;28;20094;-30
2022/09/04 01:49:42;;;;;;;3.42;2.58;;;14.90;93.10;;;;;;5036514;28;20449;-29
2022/09/04 01:52:45;;;;;;;2.90;2.70;;;14.90;93.00;;;;;;5036499;28;20033;-29
2022/09/04 01:55:16;;;;;;;3.65;2.78;;;14.90;94.10;;;;;;5036194;28;20131;-30
2022/09/04 01:58:12;;;;;;;3.28;2.60;;;14.80;93.50;;;;;;5050186;28;20083;-30
2022/09/04 02:00:49;;;;;;;3.15;2.60;;;14.80;96.20;;;;;;5036811;28;20047;-30
2022/09/04 02:03:26;;;;;;;4.82;2.50;;;14.70;94.90;;;;;;5048155;28;20044;-30
2022/09/04 02:06:11;;;;;;;2.50;2.30;;;14.70;94.40;;;;;;5035949;28;20095;-30
2022/09/04 02:08:42;;;;;;;2.90;2.65;;;14.70;95.30;;;;;;5045359;28;20036;-30
2022/09/04 02:11:11;;;;;;;3.00;2.70;;;14.60;95.60;;;;;;5054161;28;20119;-30
2022/09/04 02:13:39;;;;;;;3.38;2.53;;;14.60;96.10;;;;;;5035835;28;20090;-30
2022/09/04 02:16:43;;;;;;;3.30;2.15;;;14.50;97.10;;;;;;5035617;28;20051;-29
2022/09/04 02:19:54;;;;;;;4.25;2.65;;;14.50;99.40;;;;;;5027544;28;20055;-30
2022/09/04 02:22:47;;;;;;;3.15;2.42;;;14.40;99.70;;;;;;4998767;28;20056;-31
2022/09/04 02:25:15;;;;;;;3.20;2.60;;;14.40;98.00;;;;;;5018299;28;20062;-30
2022/09/04 02:28:26;;;;;;;3.15;2.85;;;14.30;98.90;;;;;;5050607;28;20037;-29
2022/09/04 02:31:06;;;;;;;3.08;2.63;;;14.30;99.90;;;;;;4989073;28;20117;-29
2022/09/04 02:34:01;;;;;;;3.15;2.83;;;14.30;99.90;;;;;;5030718;28;20095;-30
2022/09/04 02:36:38;;;;;;;3.08;2.78;;;14.20;99.90;;;;;;5050074;28;20109;-30
2022/09/04 02:39:54;;;;;;;2.97;2.65;;;14.20;99.90;;;;;;5046838;28;20044;-30
2022/09/04 02:42:38;;;;;;;3.67;3.13;;;14.20;99.90;;;;;;4991122;28;20053;-30
2022/09/04 02:45:19;;;;;;;3.15;2.65;;;14.10;99.90;;;;;;5035817;28;20441;-30
2022/09/04 02:48:05;;;;;;;5.63;2.85;;;14.10;99.90;;;;;;5035226;28;20040;-30
2022/09/04 02:51:01;;;;;;;3.38;2.90;;;14.00;99.90;;;;;;5035254;28;20041;-32
2022/09/04 02:53:57;;;;;;;3.03;2.80;;;14.00;99.90;;;;;;5035042;28;20041;-29
2022/09/04 02:56:55;;;;;;;2.80;2.50;;;14.00;99.90;;;;;;5034995;28;20087;-30
2022/09/04 02:59:57;;;;;;;3.78;2.75;;;13.90;99.90;;;;;;5034937;28;20041;-30
2022/09/04 03:02:41;;;;;;;4.65;2.97;;;13.90;99.90;;;;;;5001654;28;20417;-30
2022/09/04 03:05:14;;;;;;;2.72;2.47;;;13.90;99.90;;;;;;5034937;28;20045;-31
2022/09/04 03:08:11;;;;;;;3.80;2.60;;;13.90;99.90;;;;;;5048900;28;20037;-30
2022/09/04 03:10:57;;;;;;;4.43;2.78;;;13.80;99.90;;;;;;5034706;28;20033;-30
2022/09/04 03:13:37;;;;;;;3.83;3.00;;;13.80;99.90;;;;;;5034652;28;20041;-30
2022/09/04 03:16:20;;;;;;;4.55;2.80;;;13.80;99.90;;;;;;5034688;28;20071;-30
2022/09/04 03:18:57;;;;;;;3.85;2.97;;;13.80;99.90;;;;;;5034857;28;20486;-29
2022/09/04 03:21:33;;;;;;;2.95;2.67;;;13.80;99.90;;;;;;5036736;28;20482;-30
2022/09/04 03:24:20;;;;;;;3.50;2.80;;;13.70;99.90;;;;;;5045358;28;20044;-30
2022/09/04 03:27:09;;;;;;;3.72;3.28;;;13.70;99.90;;;;;;5034767;28;20045;-30
2022/09/04 03:29:35;;;;;;;5.68;2.90;;;13.70;99.90;;;;;;5033928;28;20414;-31
2022/09/04 03:32:32;;;;;;;4.28;3.10;;;13.70;99.90;;;;;;5034472;28;20041;-30
2022/09/04 03:35:26;;;;;;;5.13;2.85;;;13.70;99.90;;;;;;5034284;28;20148;-30
2022/09/04 03:37:56;;;;;;;4.53;2.95;;;13.70;99.90;;;;;;5034874;28;20283;-30
2022/09/04 03:41:04;;;;;;;3.30;3.00;;;13.60;99.90;;;;;;5031273;28;20051;-30
2022/09/04 03:43:38;;;;;;;5.13;2.80;;;13.60;99.90;;;;;;5038004;28;20064;-30
2022/09/04 03:46:07;;;;;;;3.28;2.90;;;13.60;99.90;;;;;;5034608;28;20041;-30
2022/09/04 03:48:45;;;;;;;3.35;3.00;;;13.60;99.90;;;;;;5034175;28;20506;-30
2022/09/04 03:51:37;;;;;;;3.33;3.00;;;13.60;99.90;;;;;;5034013;28;20041;-30
2022/09/04 03:54:14;;;;;;;5.15;3.00;;;13.60;99.90;;;;;;5046702;28;20131;-30
2022/09/04 03:57:12;;;;;;;3.67;3.10;;;13.50;99.90;;;;;;5026623;28;20040;-29
2022/09/04 03:59:50;;;;;;;4.53;3.30;;;13.50;99.90;;;;;;5033611;28;20449;-30
2022/09/04 04:02:15;;;;;;;3.70;3.00;;;13.50;99.90;;;;;;5034015;28;20056;-31
2022/09/04 04:05:00;;;;;;;3.40;2.97;;;13.50;99.90;;;;;;5036015;28;20036;-30
2022/09/04 04:08:03;;;;;;;3.33;3.00;;;13.40;99.90;;;;;;5040950;28;20041;-29
2022/09/04 04:10:44;;;;;;;4.25;2.95;;;13.40;99.90;;;;;;5034226;28;20425;-29
2022/09/04 04:13:13;;;;;;;5.13;3.40;;;13.40;99.90;;;;;;5048754;28;20076;-30
2022/09/04 04:15:54;;;;;;;3.42;3.15;;;13.40;99.90;;;;;;5043418;28;20398;-30
2022/09/04 04:18:37;;;;;;;4.55;3.42;;;13.40;99.90;;;;;;5012379;28;20048;-30
2022/09/04 04:21:34;;;;;;;4.00;3.63;;;13.30;99.90;;;;;;5028793;28;20041;-30
2022/09/04 04:24:06;;;;;;;3.80;3.20;;;13.30;99.90;;;;;;5029254;28;20115;-30
2022/09/04 04:26:52;;;;;;;4.20;3.35;;;13.20;99.90;;;;;;5036460;28;20037;-29
2022/09/04 04:29:49;;;;;;;4.38;3.10;;;13.20;99.90;;;;;;5025289;28;20394;-30
2022/09/04 04:32:39;;;;;;;3.65;3.38;;;13.20;99.90;;;;;;5033581;28;20040;-30
2022/09/04 04:35:23;;;;;;;3.97;3.60;;;13.20;99.90;;;;;;5039345;28;20052;-30
2022/09/04 04:38:19;;;;;;;3.55;3.25;;;13.10;99.90;;;;;;5027353;28;20112;-30
2022/09/04 04:41:24;;;;;;;4.40;3.38;;;13.10;99.90;;;;;;5052148;28;20124;-30
2022/09/04 04:44:06;;;;;;;3.55;3.10;;;13.10;99.90;;;;;;4957091;28;20084;-30
2022/09/04 04:46:59;;;;;;;4.10;3.70;;;13.00;99.90;;;;;;5027607;28;20045;-30
2022/09/04 04:49:40;;;;;;;4.68;3.28;;;13.10;99.90;;;;;;5020066;28;20514;-30
2022/09/04 04:52:20;;;;;;;4.45;3.40;;;13.00;99.90;;;;;;5045989;28;20390;-30
2022/09/04 04:55:48;;;;;;;6.93;3.63;;;13.00;99.90;;;;;;5030919;28;20399;-30
2022/09/04 04:58:26;;;;;;;3.83;3.40;;;13.00;99.90;;;;;;4981235;28;20125;-30
2022/09/04 05:01:27;;;;;;;4.82;3.75;;;13.00;99.90;;;;;;4965900;28;20047;-29
2022/09/04 05:04:24;;;;;;;4.05;3.75;;;13.00;99.90;;;;;;5003970;28;20061;-31
2022/09/04 05:07:09;;;;;;;5.57;3.80;;;13.00;99.90;;;;;;5029865;28;20053;-30
2022/09/04 05:09:52;;;;;;;4.22;3.78;;;13.00;99.90;;;;;;5035442;28;20079;-30
2022/09/04 05:12:49;;;;;;;5.45;3.78;;;13.00;99.90;;;;;;5035481;28;20029;-30
2022/09/04 05:15:27;;;;;;;7.38;4.07;;;13.00;99.90;;;;;;5050710;28;20048;-29
2022/09/04 05:18:03;;;;;;;4.25;3.85;;;13.00;99.90;;;;;;5035689;28;20037;-30
2022/09/04 05:20:51;;;;;;;4.43;3.70;;;13.00;99.90;;;;;;5015268;28;20041;-30
2022/09/04 05:23:53;;;;;;;4.53;4.00;;;13.10;99.90;;;;;;5039291;28;20045;-30
2022/09/04 05:26:32;;;;;;;4.70;4.30;;;13.10;99.90;;;;;;5035456;28;20037;-30
2022/09/04 05:29:10;;;;;;;4.68;4.25;;;13.20;99.90;;;;;;5036130;28;20071;-31
2022/09/04 05:32:04;;;;;;;4.03;3.63;;;13.30;99.90;;;;;;5056826;28;20067;-30
2022/09/04 05:34:53;;;;;;;4.65;4.10;;;13.30;99.90;;;;;;5034957;28;20037;-30
2022/09/04 05:37:28;;;;;;;4.70;4.15;;;13.30;99.90;;;;;;5036261;28;20404;-30
2022/09/04 05:40:26;;;;;;;6.38;4.53;;;13.40;99.90;;;;;;5036848;28;20037;-31
2022/09/04 05:43:11;;;;;;;4.45;4.10;;;13.40;99.90;;;;;;5047719;28;20490;-30
2022/09/04 05:46:00;;;;;;;4.60;4.10;;;13.50;99.90;;;;;;5036905;28;20033;-30
2022/09/04 05:48:41;;;;;;;6.68;4.47;;;13.50;99.90;;;;;;5036792;28;20489;-29
2022/09/04 05:51:31;;;;;;;8.23;3.97;;;13.60;99.90;;;;;;5038151;28;20040;-29
2022/09/04 05:54:05;;;;;;;6.72;4.20;;;13.70;99.90;;;;;;5036677;28;20474;-31
2022/09/04 05:57:15;;;;;;;4.47;4.05;;;13.80;99.90;;;;;;5036408;28;20112;-30
2022/09/04 06:00:03;;;;;;;5.63;4.22;;;13.90;99.90;;;;;;5046493;28;20041;-29
2022/09/04 06:02:58;;;;;;;6.03;4.53;;;13.90;99.90;;;;;;5045433;28;20121;-30
2022/09/04 06:05:42;;;;;;;5.28;4.20;;;14.00;99.90;;;;;;5015451;28;20628;-30
2022/09/04 06:08:14;;;;;;;5.18;4.38;;;14.10;99.90;;;;;;5044434;28;20037;-29
2022/09/04 06:10:58;;;;;;;8.52;4.57;;;14.20;99.90;;;;;;5034472;28;20132;-31
2022/09/04 06:13:23;;;;;;;5.38;4.85;;;14.20;99.90;;;;;;5054849;28;20402;-31
2022/09/04 06:16:19;;;;;;;6.70;4.32;;;14.30;99.90;;;;;;5047166;28;20056;-29
2022/09/04 06:19:07;;;;;;;5.28;3.67;;;14.40;99.90;;;;;;5035684;28;20494;-31
2022/09/04 06:21:54;;;;;;;5.63;4.50;;;14.50;99.90;;;;;;5035286;28;20040;-30
2022/09/04 06:24:40;;;;;;;4.78;4.30;;;14.60;99.90;;;;;;5039090;28;20123;-30
2022/09/04 06:27:15;;;;;;;8.85;4.85;;;14.70;99.90;;;;;;5033581;28;20456;-29
2022/09/04 06:30:10;;;;;;;6.55;4.40;;;14.70;99.90;;;;;;5031581;28;20064;-30
2022/09/04 06:33:19;;;;;;;4.75;4.25;;;14.80;99.90;;;;;;5042961;28;20036;-30
2022/09/04 06:35:48;;;;;;;5.28;4.70;;;14.90;99.90;;;;;;5034135;28;20498;-30
2022/09/04 06:38:14;;;;;;;5.05;4.30;;;14.90;99.90;;;;;;5044018;28;20044;-31
2022/09/04 06:41:03;;;;;;;9.00;4.70;;;14.90;99.90;;;;;;5035292;28;20040;-29
2022/09/04 06:43:48;;;;;;;5.88;4.38;;;15.00;99.90;;;;;;5044420;28;20040;-30
2022/09/04 06:46:38;;;;;;;6.63;4.50;;;15.10;99.90;;;;;;5040268;28;20528;-30
2022/09/04 06:49:21;;;;;;;5.88;4.53;;;15.10;99.90;;;;;;5040048;28;20552;-30
2022/09/04 06:52:04;;;;;;;6.25;4.20;;;15.20;99.90;;;;;;5030377;28;20115;-30
2022/09/04 06:54:40;;;;;;;5.10;4.13;;;15.30;99.90;;;;;;5035128;28;20064;-30
2022/09/04 06:57:19;;;;;;;5.20;4.18;;;15.40;99.90;;;;;;5035294;28;20082;-31
2022/09/04 07:00:05;;;;;;;8.35;3.70;;;15.40;99.90;;;;;;5034951;28;20398;-30
2022/09/04 07:03:13;;;;;;;6.63;4.13;;;15.50;99.90;;;;;;5050510;28;20043;-30
2022/09/04 07:06:00;;;;;;;8.77;4.57;;;15.60;99.90;;;;;;5033527;28;20873;-31
2022/09/04 07:08:56;;;;;;;5.28;4.78;;;15.60;99.90;;;;;;5034675;28;20033;-31
2022/09/04 07:11:39;;;;;;;5.57;4.40;;;15.70;99.90;;;;;;5014594;28;20041;-29
2022/09/04 07:14:20;;;;;;;4.90;4.40;;;15.80;99.90;;;;;;5013588;28;20046;-29
2022/09/04 07:17:11;;;;;;;5.78;3.75;;;15.80;99.90;;;;;;5014750;28;20111;-29
2022/09/04 07:20:08;;;;;;;4.25;3.92;;;15.90;99.90;;;;;;5022525;28;20029;-30
2022/09/04 07:23:09;;;;;;;4.05;3.65;;;16.00;99.90;;;;;;5034040;28;20482;-30
2022/09/04 07:26:02;;;;;;;4.72;4.18;;;16.20;99.90;;;;;;5031659;28;20041;-29
2022/09/04 07:28:35;;;;;;;5.50;3.67;;;16.20;99.90;;;;;;5031883;28;20041;-30
2022/09/04 07:31:16;;;;;;;5.13;4.28;;;16.40;99.90;;;;;;5028796;28;20084;-32
2022/09/04 07:34:10;;;;;;;4.68;4.25;;;16.50;99.90;;;;;;5028011;28;20533;-33
2022/09/04 07:36:44;;;;;;;3.80;3.50;;;16.70;99.90;;;;;;5033076;28;20021;-32
2022/09/04 07:39:16;;;;;;;;;;;16.90;99.90;;;;;;5037810;28;20485;-30
2022/09/04 07:42:09;;;;;;;4.43;3.50;;;17.00;99.90;;;;;;5047187;28;19920;-31
2022/09/04 07:45:01;;;;;;;6.50;3.85;;;17.30;99.90;;;;;;5033898;28;20394;-31
2022/09/04 07:47:29;;;;;;;5.43;3.85;;;17.60;99.90;;;;;;5031825;28;20506;-31
2022/09/04 07:50:06;;;;;;;4.38;3.28;;;17.80;99.90;;;;;;5019063;28;20064;-31
2022/09/04 07:52:49;;;;;;;4.45;3.65;;;18.10;99.90;;;;;;5033500;28;20082;-31
2022/09/04 07:56:03;;;;;;;3.80;3.50;;;18.40;99.90;;;;;;5034794;28;20037;-30
2022/09/04 07:58:55;;;;;;;5.88;3.72;;;18.80;99.90;;;;;;4969571;28;20445;-32
2022/09/04 08:01:59;;;;;;;4.93;3.40;;;19.20;99.70;;;;;;4988722;28;20045;-31
2022/09/04 08:04:55;;;;;;;5.97;3.60;;;19.40;96.60;;;;;;4990791;28;20056;-31
2022/09/04 08:07:33;;;;;;;4.93;3.38;;;19.70;93.60;;;;;;5033450;28;20098;-32
2022/09/04 08:10:30;;;;;;;3.47;3.08;;;19.90;92.40;;;;;;5033079;28;20040;-32
2022/09/04 08:13:08;;;;;;;6.78;3.50;;;20.20;93.60;;;;;;5035468;28;20064;-32
2022/09/04 08:16:10;;;;;;;5.30;3.20;;;20.50;92.80;;;;;;5035204;28;20029;-31
2022/09/04 08:19:01;;;;;;;3.78;3.45;;;20.80;90.20;;;;;;5020612;28;20386;-30
2022/09/04 08:21:34;;;;;;;4.50;3.88;;;21.00;85.40;;;;;;5029057;28;20068;-31
2022/09/04 08:24:18;;;;;;;3.60;3.30;;;21.10;82.80;;;;;;5031104;28;20039;-31
2022/09/04 08:27:21;;;;;;;4.18;3.58;;;21.30;81.50;;;;;;5033906;28;20037;-31
2022/09/04 08:30:04;;;;;;;3.80;2.80;;;21.50;79.00;;;;;;5022465;28;20565;-32
2022/09/04 08:32:36;;;;;;;3.27;3.07;;;21.80;80.30;;;;;;5036677;28;20295;-31
2022/09/04 08:35:14;;;;;;;5.07;3.28;;;22.00;79.30;;;;;;5037242;28;20291;-32
2022/09/04 08:38:17;;;;;;;3.72;2.67;;;22.20;76.30;;;;;;5037211;28;20080;-32
2022/09/04 08:40:58;;;;;;;3.90;3.03;;;22.40;75.90;;;;;;5036529;28;20037;-31
2022/09/04 08:44:02;;;;;;;3.90;3.13;;;22.60;73.80;;;;;;5038003;28;20291;-30
2022/09/04 08:46:31;;;;;;;5.55;3.17;;;22.90;72.70;;;;;;5021024;28;20055;-30
2022/09/04 08:49:21;;;;;;;5.13;3.22;;;23.30;73.40;;;;;;5037649;28;20065;-30
2022/09/04 08:52:08;;;;;;;3.35;2.85;;;23.70;72.00;;;;;;5037433;28;20047;-30
2022/09/04 08:55:00;;;;;;;3.95;3.00;;;24.00;70.10;;;;;;5037804;28;20120;-30
2022/09/04 08:57:51;;;;;;;4.38;2.88;;;24.30;65.50;;;;;;5000394;28;20071;-30
2022/09/04 09:00:21;;;;;;;5.10;3.00;;;24.50;66.20;;;;;;5037205;28;20041;-30
2022/09/04 09:02:52;;;;;;;3.65;2.55;;;24.80;66.40;;;;;;5020741;28;20048;-30
2022/09/04 09:05:55;;;;;;;3.20;2.63;;;24.90;66.40;;;;;;5037207;28;20044;-31
2022/09/04 09:08:36;;;;;;;3.97;2.67;;;25.00;61.60;;;;;;5037360;28;20060;-30
2022/09/04 09:11:30;;;;;;;4.18;3.00;;;25.10;62.40;;;;;;5037245;28;20522;-30
2022/09/04 09:14:21;;;;;;;5.22;3.30;;;25.40;61.40;;;;;;5043298;28;20041;-30
2022/09/04 09:17:22;;;;;;;3.40;3.08;;;25.70;61.60;;;;;;5041193;28;20440;-31
2022/09/04 09:20:24;;;;;;;3.70;2.83;;;25.90;61.00;;;;;;4957799;28;20390;-31
2022/09/04 09:23:18;;;;;;;3.22;2.88;;;26.10;59.40;;;;;;5035616;28;20076;-29
2022/09/04 09:26:07;;;;;;;5.00;2.88;;;26.40;58.30;;;;;;5038304;28;20385;-31
2022/09/04 09:29:08;;;;;;;2.80;2.50;;;26.50;52.60;;;;;;5034660;28;20033;-30
2022/09/04 09:32:00;;;;;;;3.03;2.33;;;26.50;57.70;;;;;;5020208;28;20128;-30
2022/09/04 09:34:32;;;;;;;3.63;2.08;;;26.80;56.40;;;;;;5033444;28;20037;-30
2022/09/04 09:37:10;;;;;;;3.10;2.33;;;27.10;57.20;;;;;;5036393;28;20041;-30
2022/09/04 09:40:13;;;;;;;5.45;2.20;;;27.30;56.60;;;;;;5037498;28;20037;-31
2022/09/04 09:43:00;;;;;;;3.25;2.35;;;27.60;55.60;;;;;;5019058;28;20107;-32
2022/09/04 09:46:04;;;;;;;3.80;2.42;;;27.60;53.30;;;;;;5033200;28;20045;-30
2022/09/04 09:48:49;;;;;;;;;;;27.50;52.90;;;;;;5034518;28;20041;-33
2022/09/04 09:52:12;;;;;;;4.57;2.40;;;27.60;54.70;;;;;;5043887;28;19923;-33
2022/09/04 09:54:54;;;;;;;2.65;2.05;;;28.00;53.80;;;;;;4951482;29;20062;-33
2022/09/04 09:57:43;;;;;;;2.63;2.15;;;28.10;52.80;;;;;;4950243;29;20054;-33
2022/09/04 10:00:16;;;;;;;3.15;2.38;;;28.10;52.90;;;;;;5015308;28;20041;-32
2022/09/04 10:03:01;;;;;;;2.55;2.35;;;28.20;53.00;;;;;;5031204;28;20417;-32
2022/09/04 10:06:04;;;;;;;3.72;2.40;;;28.60;53.10;;;;;;5031396;28;20039;-33
2022/09/04 10:08:53;;;;;;;3.92;2.40;;;28.50;49.50;;;;;;5033692;28;20037;-33
2022/09/04 10:11:40;;;;;;;3.60;2.30;;;28.50;51.40;;;;;;5027412;28;20044;-33
2022/09/04 10:14:16;;;;;;;4.80;2.17;;;29.00;50.80;;;;;;5033374;28;20033;-34
2022/09/04 10:16:59;;;;;;;2.53;2.30;;;29.30;50.70;;;;;;5048527;28;20112;-32
2022/09/04 10:19:28;;;;;;;4.80;2.22;;;29.30;49.60;;;;;;5049841;28;20087;-33
2022/09/04 10:22:24;;;;;;;2.50;2.20;;;29.20;49.60;;;;;;5032545;28;20128;-33
2022/09/04 10:24:56;;;;;;;3.80;2.75;;;29.20;48.70;;;;;;5049381;28;20069;-32
2022/09/04 10:27:59;;;;;;;3.28;2.25;;;28.80;48.00;;;;;;5047301;28;20028;-35
2022/09/04 10:30:48;;;;;;;2.38;2.10;;;28.90;49.70;;;;;;5030979;28;20449;-36
2022/09/04 10:33:46;;;;;;;2.80;2.20;;;29.10;48.70;;;;;;5030778;28;20041;-35
2022/09/04 10:36:29;;;;;;;2.85;2.10;;;28.90;47.50;;;;;;5028729;28;20441;-34
2022/09/04 10:42:05;;;;;;;2.53;2.20;;;29.60;48.50;;;;;;5050273;28;20056;-33
2022/09/04 10:45:15;;;;;;;2.67;2.10;;;29.80;47.80;;;;;;5033223;28;20033;-33
2022/09/04 10:48:05;;;;;;;4.72;2.42;;;30.30;47.30;;;;;;5031348;28;20425;-33
2022/09/04 10:50:57;;;;;;;2.55;2.00;;;30.60;47.30;;;;;;5033266;28;20116;-34
2022/09/04 10:54:04;;;;;;;2.17;1.98;;;30.80;46.60;;;;;;5029320;28;20040;-34
2022/09/04 10:56:48;;;;;;;2.38;2.00;;;31.00;46.00;;;;;;5030590;28;20410;-32
2022/09/04 10:59:41;;;;;;;2.10;2.00;;;31.20;46.20;;;;;;5030610;28;20475;-34
2022/09/04 11:02:09;;;;;;;2.33;1.95;;;31.00;44.80;;;;;;5029580;28;20045;-33
2022/09/04 11:04:53;;;;;;;2.85;1.95;;;30.60;44.70;;;;;;5034260;28;20041;-33
2022/09/04 11:07:52;;;;;;;2.33;2.05;;;30.10;44.20;;;;;;5022954;28;20032;-33
2022/09/04 11:10:32;;;;;;;3.03;2.17;;;30.10;46.40;;;;;;5030629;28;20040;-34
2022/09/04 11:13:36;;;;;;;2.50;2.30;;;30.20;44.50;;;;;;5009383;28;20041;-31
2022/09/04 11:16:28;;;;;;;2.92;2.13;;;30.30;45.50;;;;;;5031890;28;20037;-32
2022/09/04 11:19:27;;;;;;;2.17;2.00;;;30.60;44.90;;;;;;5018222;28;20045;-31
2022/09/04 11:21:59;;;;;;;2.83;2.20;;;31.00;45.10;;;;;;5016402;28;20053;-31
2022/09/04 11:24:34;;;;;;;2.25;2.05;;;31.30;44.60;;;;;;5027519;28;20103;-30
2022/09/04 11:27:37;;;;;;;2.45;2.17;;;31.50;44.80;;;;;;5044851;28;20055;-33
2022/09/04 11:30:20;;;;;;;2.92;2.22;;;32.10;44.30;;;;;;5017929;28;20037;-33
2022/09/04 11:33:07;;;;;;;4.30;2.30;;;32.00;43.10;;;;;;5038518;28;20041;-33
2022/09/04 11:35:51;;;;;;;3.05;2.15;;;31.80;43.60;;;;;;5025495;28;20064;-33
2022/09/04 11:38:42;;;;;;;3.45;2.08;;;31.90;44.10;;;;;;5015623;28;20044;-30
2022/09/04 11:41:42;;;;;;;2.60;2.17;;;32.20;45.20;;;;;;5005569;28;20056;-31
2022/09/04 11:44:26;;;;;;;2.35;2.10;;;32.60;43.20;;;;;;5029756;28;20044;-34
2022/09/04 11:47:11;;;;;;;1.80;1.67;;;33.10;43.40;;;;;;5029920;28;20221;-34
2022/09/04 11:49:55;;;;;;;2.15;1.90;;;33.50;43.10;;;;;;5029210;28;20041;-30
2022/09/04 11:52:36;;;;;;;3.58;1.90;;;33.70;43.40;;;;;;5033674;28;20514;-33
2022/09/04 11:55:17;;;;;;;2.40;1.80;;;33.80;43.30;;;;;;5005617;28;20037;-31
2022/09/04 11:57:43;;;;;;;3.97;2.30;;;33.90;42.80;;;;;;5028211;28;20032;-31
2022/09/04 12:00:19;;;;;;;2.13;1.90;;;33.90;42.70;;;;;;5021563;28;20033;-31
2022/09/04 12:03:19;;;;;;;2.85;1.70;;;33.90;42.20;;;;;;5041770;28;20040;-30
2022/09/04 12:06:06;;;;;;;1.95;1.77;;;34.10;42.00;;;;;;5044737;28;20041;-30
2022/09/04 12:09:05;;;;;;;2.75;1.83;;;34.10;41.80;;;;;;5033395;28;20562;-30
2022/09/04 12:11:55;;;;;;;3.67;1.98;;;33.90;41.40;;;;;;5040895;28;20037;-33
2022/09/04 12:15:00;;;;;;;2.10;2.00;;;33.90;39.20;;;;;;5023690;28;20478;-32
2022/09/04 12:17:55;;;;;;;3.05;1.88;;;33.90;40.40;;;;;;5027061;28;20174;-31
2022/09/04 12:20:46;;;;;;;7.75;2.30;;;34.30;41.60;;;;;;5028784;28;20041;-32
2022/09/04 12:23:37;;;;;;;2.45;1.90;;;34.60;40.40;;;;;;5022792;28;20490;-33
2022/09/04 12:26:04;;;;;;;3.55;1.70;;;34.70;40.00;;;;;;5044500;28;20499;-34
2022/09/04 12:28:33;;;;;;;4.00;2.05;;;34.70;39.40;;;;;;5023072;28;20052;-32
2022/09/04 12:31:17;;;;;;;2.90;1.80;;;34.70;39.70;;;;;;5024881;28;20135;-31
2022/09/04 12:33:43;;;;;;;2.97;1.85;;;34.60;40.00;;;;;;5038204;28;20052;-32
2022/09/04 12:36:24;;;;;;;2.97;1.85;;;34.70;39.60;;;;;;5050011;28;20041;-35
2022/09/04 12:39:01;;;;;;;2.67;1.90;;;34.70;39.30;;;;;;5029782;28;20037;-31
2022/09/04 12:41:31;;;;;;;1.92;1.80;;;34.60;39.20;;;;;;5050413;28;20045;-32
2022/09/04 12:44:19;;;;;;;2.85;1.95;;;34.70;38.20;;;;;;5032538;28;20033;-31
2022/09/04 12:47:18;;;;;;;6.65;2.00;;;34.70;39.00;;;;;;5030345;28;20041;-35
2022/09/04 12:50:13;;;;;;;2.13;1.92;;;34.90;39.60;;;;;;5043038;28;20072;-32
2022/09/04 12:52:49;;;;;;;2.13;2.00;;;35.00;38.40;;;;;;5004550;28;20186;-31
2022/09/04 12:55:33;;;;;;;2.35;1.88;;;35.10;38.50;;;;;;5026078;28;20407;-31
2022/09/04 12:58:10;;;;;;;2.17;1.83;;;35.30;38.70;;;;;;5023826;28;20482;-31
2022/09/04 13:01:01;;;;;;;1.83;1.73;;;35.70;37.70;;;;;;5022353;28;20041;-31
2022/09/04 13:03:29;;;;;;;3.00;1.88;;;35.80;37.50;;;;;;5016312;28;20517;-31
2022/09/04 13:06:22;;;;;;;2.80;2.05;;;35.80;36.30;;;;;;5057415;28;20509;-32
2022/09/04 13:09:03;;;;;;;1.77;1.67;;;36.20;36.40;;;;;;5044807;28;20494;-32
2022/09/04 13:11:58;;;;;;;3.58;2.13;;;36.70;37.70;;;;;;5050148;28;20485;-32
2022/09/04 13:14:29;;;;;;;2.05;1.77;;;37.20;37.30;;;;;;5015820;28;20037;-29
2022/09/04 13:17:04;;;;;;;2.10;1.70;;;37.50;36.60;;;;;;5037427;28;20045;-30
2022/09/04 13:19:58;;;;;;;2.10;1.80;;;38.10;35.30;;;;;;5037272;28;20063;-30
2022/09/04 13:22:33;;;;;;;2.15;1.95;;;38.20;34.00;;;;;;5037315;28;20565;-30
2022/09/04 13:25:41;;;;;;;1.77;1.67;;;37.90;34.30;;;;;;5037345;28;20492;-30
2022/09/04 13:28:18;;;;;;;2.95;1.85;;;37.30;34.20;;;;;;5036991;28;20079;-30
2022/09/04 13:31:19;;;;;;;2.03;1.80;;;36.80;37.00;;;;;;5054984;28;20071;-31
2022/09/04 13:34:03;;;;;;;2.00;1.80;;;36.90;35.70;;;;;;5006560;28;20049;-30
2022/09/04 13:36:48;;;;;;;1.80;1.70;;;36.90;35.00;;;;;;5037070;28;20055;-31
2022/09/04 13:39:32;;;;;;;3.35;1.85;;;37.00;35.50;;;;;;5054952;28;20585;-29
2022/09/04 13:42:43;;;;;;;3.80;1.70;;;36.70;37.00;;;;;;5054248;28;20045;-28
2022/09/04 13:45:10;;;;;;;2.45;1.80;;;36.60;37.20;;;;;;5006681;28;20060;-31
2022/09/04 13:47:40;;;;;;;2.75;2.00;;;36.70;36.50;;;;;;5036605;28;20037;-30
2022/09/04 13:50:35;;;;;;;1.80;1.70;;;37.20;35.40;;;;;;5036724;28;20040;-32
2022/09/04 13:53:32;;;;;;;1.90;1.60;;;36.50;34.80;;;;;;5025896;28;20127;-30
2022/09/04 13:56:05;;;;;;;2.05;1.90;;;36.20;36.40;;;;;;5030415;28;20048;-29
2022/09/04 13:58:38;;;;;;;2.10;1.90;;;36.30;35.40;;;;;;5020951;28;20103;-31
2022/09/04 14:01:09;;;;;;;1.92;1.80;;;36.40;35.30;;;;;;5036639;28;20033;-30
2022/09/04 14:03:47;;;;;;;2.92;1.83;;;36.50;35.10;;;;;;5036481;28;20520;-31
2022/09/04 14:06:16;;;;;;;3.33;2.00;;;36.90;35.50;;;;;;5036496;28;20060;-31
2022/09/04 14:08:44;;;;;;;2.03;1.73;;;37.00;35.60;;;;;;5052980;28;20075;-31
2022/09/04 14:11:35;;;;;;;2.33;1.98;;;37.40;35.00;;;;;;5052720;28;20044;-29
2022/09/04 14:14:19;;;;;;;3.17;2.13;;;37.60;34.50;;;;;;5028250;28;20448;-32
2022/09/04 14:16:48;;;;;;;2.63;1.70;;;37.30;36.30;;;;;;5037446;28;20044;-31
2022/09/04 14:19:35;;;;;;;1.60;1.50;;;37.10;35.40;;;;;;5027003;28;20072;-32
2022/09/04 14:22:15;;;;;;;3.25;1.80;;;36.70;35.00;;;;;;5031314;28;20138;-32
2022/09/04 14:25:08;;;;;;;4.00;2.08;;;36.40;36.10;;;;;;5018550;28;20360;-31
2022/09/04 14:28:09;;;;;;;2.70;2.22;;;36.40;35.50;;;;;;5034701;28;20029;-31
2022/09/04 14:31:06;;;;;;;2.58;2.10;;;36.50;35.80;;;;;;5026531;28;20041;-32